Bloomfield Township, Michigan
Current Conditions -  °F | °C
As of 12:54 AM on Monday 20 Oct 2014 (Local Time) from KVLL Reporting Station
Overcast Overcast  
Wind Chill: 48°   Ceiling: 10000
Heat Index: 48°   Visibility: 10mi
Dew Point: 33°   Wind: 3mph
Humidity: 55%   Direction: 200°SSW
Pressure: 29.98"   Gusts: NA
Location:  42.5858°N, 83.2941°W
Report Text: KVLL 200454Z AUTO 20003KT 10SM OVC100 09/01 A2998 RMK AO2 T00900005
Loading
Personal Weather Stations






























Interactive Weather Map New forecast layout! Learn more

10-Day Weather Forecast

Advertisements
Track Severe Weather on mobile